Time;durP1;ratioP1;P1;durP2;ratioP2;P2;SDS_P1;SDS_P2;PMS_P1;PMS_P2;Temp;Humidity;BMP_temperature;BMP_pressure;BME280_temperature;BME280_humidity;BME280_pressure;Samples;Min_cycle;Max_cycle;Signal;HPM_P1;HPM_P2
2021/08/19 00:01:53;;;;;;;8.75;4.82;;;;;;;17.58;71.95;100274.53;5022640;28;20388;-76
2021/08/19 00:04:21;;;;;;;4.90;4.22;;;;;;;17.46;72.28;100273.84;5028300;28;20045;-75
2021/08/19 00:06:48;;;;;;;5.15;4.05;;;;;;;17.58;72.05;100273.69;5024581;28;20123;-76
2021/08/19 00:09:15;;;;;;;7.32;4.93;;;;;;;17.56;72.33;100272.97;5016435;28;20117;-77
2021/08/19 00:11:43;;;;;;;7.43;5.00;;;;;;;17.55;72.63;100273.97;4992198;28;20083;-74
2021/08/19 00:14:10;;;;;;;5.75;4.88;;;;;;;17.43;73.15;100268.81;4982132;28;20098;-76
2021/08/19 00:16:37;;;;;;;7.50;5.38;;;;;;;17.44;73.35;100269.66;5025358;28;20086;-76
2021/08/19 00:19:04;;;;;;;5.47;4.78;;;;;;;17.50;73.36;100268.25;5024853;28;20072;-77
2021/08/19 00:21:32;;;;;;;9.38;5.55;;;;;;;17.51;73.51;100268.09;5017923;28;20686;-77
2021/08/19 00:23:59;;;;;;;8.80;6.60;;;;;;;17.32;74.98;100273.44;5020148;28;20107;-76
2021/08/19 00:26:26;;;;;;;9.15;7.07;;;;;;;17.41;74.43;100280.56;5014073;28;20041;-77
2021/08/19 00:28:54;;;;;;;8.00;5.82;;;;;;;17.39;74.38;100275.41;5000865;28;20080;-76
2021/08/19 00:31:22;;;;;;;6.20;5.60;;;;;;;17.28;75.36;100272.06;5021341;28;20345;-75
2021/08/19 00:33:50;;;;;;;11.68;6.45;;;;;;;17.42;74.63;100272.44;5027893;28;20053;-75
2021/08/19 00:36:18;;;;;;;6.82;5.88;;;;;;;17.49;74.77;100270.06;5027376;28;20140;-76
2021/08/19 00:38:45;;;;;;;8.60;6.07;;;;;;;17.48;75.03;100268.38;5021774;28;20125;-74
2021/08/19 00:41:14;;;;;;;7.47;6.47;;;;;;;17.45;75.01;100284.63;5027787;28;20128;-76
2021/08/19 00:43:41;;;;;;;8.88;7.30;;;;;;;17.40;75.29;100269.09;5021103;28;20539;-76
2021/08/19 00:46:28;;;;;;;10.13;7.68;;;;;;;17.43;75.40;100274.16;5025160;28;20141;-76
2021/08/19 00:49:06;;;;;;;8.65;6.85;;;;;;;17.46;75.35;100281.81;5024481;28;20057;-77
2021/08/19 00:51:44;;;;;;;9.30;7.40;;;;;;;17.46;75.43;100271.19;5003052;28;20060;-76
2021/08/19 00:54:14;;;;;;;8.55;7.35;;;;;;;17.37;76.20;100276.53;5032995;28;20563;-76
2021/08/19 00:56:42;;;;;;;10.93;7.78;;;;;;;17.23;76.48;100275.13;5027888;28;20045;-77
2021/08/19 00:59:11;;;;;;;11.38;8.13;;;;;;;17.29;76.46;100269.28;5027691;28;20107;-77
2021/08/19 01:01:39;;;;;;;10.57;8.25;;;;;;;17.33;76.44;100275.97;5025241;28;22112;-76
2021/08/19 01:04:10;;;;;;;10.48;8.35;;;;;;;17.33;76.86;100270.63;5007052;28;20049;-77
2021/08/19 01:06:38;;;;;;;8.93;7.60;;;;;;;17.29;77.07;100273.72;5008249;28;20065;-75
2021/08/19 01:09:06;;;;;;;11.05;7.13;;;;;;;17.34;77.11;100276.81;5013119;28;20124;-76
2021/08/19 01:11:39;;;;;;;13.48;8.98;;;;;;;17.34;77.00;100274.16;5006065;28;20104;-77
2021/08/19 01:14:10;;;;;;;9.68;8.68;;;;;;;17.41;76.56;100267.28;4982122;28;20076;-77
2021/08/19 01:16:38;;;;;;;10.07;9.07;;;;;;;17.40;76.81;100271.75;5001610;28;20543;-76
2021/08/19 01:19:05;;;;;;;13.30;9.98;;;;;;;17.43;76.38;100265.31;5017549;28;20183;-76
2021/08/19 01:21:32;;;;;;;10.43;8.68;;;;;;;17.46;76.68;100267.69;5024548;28;20046;-77
2021/08/19 01:24:00;;;;;;;10.20;9.20;;;;;;;17.35;77.33;100267.84;4986822;28;20501;-76
2021/08/19 01:26:28;;;;;;;12.20;9.77;;;;;;;17.15;77.75;100264.38;5026183;28;20216;-75
2021/08/19 01:28:55;;;;;;;10.65;8.93;;;;;;;17.14;78.34;100260.88;4999891;28;20085;-75
2021/08/19 01:31:24;;;;;;;12.00;8.98;;;;;;;17.27;77.73;100262.41;5010985;28;20140;-79
2021/08/19 01:33:53;;;;;;;11.65;9.65;;;;;;;17.10;78.40;100262.13;5019737;28;20057;-75
2021/08/19 01:36:20;;;;;;;10.98;9.98;;;;;;;17.23;77.95;100272.47;5022954;28;20492;-77
2021/08/19 01:38:49;;;;;;;11.73;10.38;;;;;;;17.29;77.60;100268.41;5014781;28;20523;-75
2021/08/19 01:41:16;;;;;;;14.07;9.68;;;;;;;17.24;77.74;100265.34;5040665;28;20061;-76
2021/08/19 01:43:45;;;;;;;9.82;8.93;;;;;;;17.27;77.73;100268.56;5034750;28;20049;-78
2021/08/19 01:46:14;;;;;;;11.40;9.27;;;;;;;17.32;77.57;100265.47;5046822;28;20066;-76
2021/08/19 01:48:42;;;;;;;11.35;9.48;;;;;;;17.26;77.64;100266.06;4994131;28;20141;-76
2021/08/19 01:51:10;;;;;;;12.07;9.15;;;;;;;17.33;77.32;100264.47;5024787;28;20135;-75
2021/08/19 01:53:40;;;;;;;15.20;9.68;;;;;;;17.31;77.44;100267.28;5018495;28;20172;-76
2021/08/19 01:56:07;;;;;;;10.43;8.73;;;;;;;17.38;77.16;100264.88;5008884;28;20048;-78
2021/08/19 01:58:34;;;;;;;13.25;9.05;;;;;;;17.34;77.24;100263.53;5010898;28;20501;-76
2021/08/19 02:01:02;;;;;;;10.10;9.20;;;;;;;17.20;78.18;100273.63;5035015;28;20170;-77
2021/08/19 02:03:30;;;;;;;12.73;9.52;;;;;;;17.27;77.61;100273.03;5016834;28;20073;-79
2021/08/19 02:05:58;;;;;;;11.63;8.40;;;;;;;17.28;77.47;100274.72;5042816;28;20046;-75
2021/08/19 02:08:25;;;;;;;9.20;8.18;;;;;;;17.30;77.08;100276.25;5015147;28;20426;-76
2021/08/19 02:10:52;;;;;;;10.70;9.55;;;;;;;17.28;77.21;100269.41;5022059;28;20049;-76
2021/08/19 02:13:19;;;;;;;10.70;8.48;;;;;;;17.15;76.96;100259.03;5025502;28;20049;-79
2021/08/19 02:15:46;;;;;;;8.35;7.55;;;;;;;17.25;76.71;100267.88;5027071;28;20528;-76
2021/08/19 02:18:14;;;;;;;8.40;7.60;;;;;;;17.27;76.66;100267.72;5020032;28;20672;-76
2021/08/19 02:20:41;;;;;;;8.38;7.43;;;;;;;17.29;76.60;100266.63;5016753;28;20144;-75
2021/08/19 02:23:08;;;;;;;9.50;7.38;;;;;;;17.23;76.98;100256.53;5019308;28;20395;-77
2021/08/19 02:25:35;;;;;;;12.23;7.90;;;;;;;17.05;77.36;100269.69;5021043;28;20136;-76
2021/08/19 02:28:02;;;;;;;11.90;8.77;;;;;;;17.01;77.61;100270.13;5020813;28;20060;-75
2021/08/19 02:30:30;;;;;;;8.95;7.82;;;;;;;17.11;77.36;100253.19;5020187;28;20108;-75
2021/08/19 02:32:57;;;;;;;10.52;7.70;;;;;;;17.11;77.64;100255.84;5009210;28;20127;-76
2021/08/19 02:35:25;;;;;;;7.43;6.43;;;;;;;17.07;77.34;100258.94;5027221;28;20495;-76
2021/08/19 02:37:59;;;;;;;9.50;7.20;;;;;;;17.05;77.71;100248.41;5024995;28;20159;-77
2021/08/19 02:40:28;;;;;;;8.40;7.57;;;;;;;17.06;77.75;100252.75;5021258;28;20140;-76
2021/08/19 02:42:55;;;;;;;8.65;7.80;;;;;;;17.13;76.79;100248.56;5019146;28;20141;-76
2021/08/19 02:45:22;;;;;;;9.93;7.93;;;;;;;17.20;76.63;100249.69;5025294;28;20377;-74
2021/08/19 02:47:50;;;;;;;10.63;7.60;;;;;;;17.14;77.19;100257.38;5017670;28;20069;-74
2021/08/19 02:50:17;;;;;;;33.13;8.77;;;;;;;17.06;77.32;100250.09;5030869;28;20059;-78
2021/08/19 02:52:44;;;;;;;9.25;8.35;;;;;;;17.08;77.35;100256.13;5018986;28;20050;-76
2021/08/19 02:55:12;;;;;;;9.35;7.40;;;;;;;17.03;77.24;100247.72;5023822;28;20132;-75
2021/08/19 02:57:39;;;;;;;8.57;7.55;;;;;;;17.02;77.55;100248.72;4985890;28;20105;-79
2021/08/19 03:00:07;;;;;;;7.75;6.63;;;;;;;17.01;77.32;100247.00;5025183;28;20059;-76
2021/08/19 03:02:34;;;;;;;9.85;7.50;;;;;;;16.95;77.61;100245.78;5006564;28;20437;-75
2021/08/19 03:05:03;;;;;;;10.40;7.97;;;;;;;16.96;77.80;100241.28;5025252;28;20053;-76
2021/08/19 03:07:30;;;;;;;7.30;5.90;;;;;;;16.98;77.64;100242.00;5019587;28;20057;-75
2021/08/19 03:09:58;;;;;;;15.30;6.80;;;;;;;17.00;77.36;100249.81;5020311;28;20445;-77
2021/08/19 03:12:25;;;;;;;7.65;6.70;;;;;;;17.00;77.03;100237.38;4989672;28;20060;-76
2021/08/19 03:14:52;;;;;;;7.20;6.55;;;;;;;16.86;78.10;100235.97;5027369;28;20216;-76
2021/08/19 03:17:20;;;;;;;10.63;6.45;;;;;;;16.94;77.55;100232.63;5023102;28;20148;-76
2021/08/19 03:19:47;;;;;;;9.35;6.55;;;;;;;16.76;78.34;100244.94;4999180;28;20063;-76
2021/08/19 03:22:15;;;;;;;9.57;6.72;;;;;;;16.89;78.09;100241.03;5020016;28;20079;-77
2021/08/19 03:24:42;;;;;;;7.47;6.68;;;;;;;16.76;78.13;100245.78;5018693;28;20050;-78
2021/08/19 03:27:10;;;;;;;8.00;6.90;;;;;;;16.88;77.56;100233.16;5013070;28;20107;-77
2021/08/19 03:29:38;;;;;;;9.57;7.82;;;;;;;16.94;77.78;100238.78;5020273;28;20068;-78
2021/08/19 03:32:06;;;;;;;7.90;7.20;;;;;;;16.94;77.65;100243.25;5018772;28;20135;-77
2021/08/19 03:34:34;;;;;;;9.07;7.57;;;;;;;16.95;77.78;100239.63;5024755;28;20089;-78
2021/08/19 03:37:03;;;;;;;8.50;6.75;;;;;;;16.94;78.05;100248.56;5019071;28;20365;-77
2021/08/19 03:39:30;;;;;;;8.38;7.53;;;;;;;16.94;78.19;100246.75;5005735;28;20203;-76
2021/08/19 03:41:58;;;;;;;9.20;7.60;;;;;;;16.73;79.26;100240.72;5015924;28;20045;-76
2021/08/19 03:44:25;;;;;;;8.30;7.45;;;;;;;16.79;79.24;100249.97;5020628;28;20104;-74
2021/08/19 03:46:53;;;;;;;8.48;7.60;;;;;;;16.76;79.43;100243.13;5013598;28;20080;-77
2021/08/19 03:49:20;;;;;;;8.93;7.97;;;;;;;16.84;78.98;100250.38;5017568;28;20057;-76
2021/08/19 03:51:47;;;;;;;9.68;7.53;;;;;;;16.77;79.68;100247.44;5018242;28;20564;-79
2021/08/19 03:54:15;;;;;;;8.90;8.00;;;;;;;16.76;79.84;100258.22;4971844;28;20041;-75
2021/08/19 03:56:42;;;;;;;9.32;7.68;;;;;;;16.81;79.47;100259.47;5019561;28;20090;-76
2021/08/19 03:59:10;;;;;;;13.18;9.23;;;;;;;16.82;79.46;100260.31;5024448;28;20136;-76
2021/08/19 04:01:37;;;;;;;10.40;8.13;;;;;;;16.70;80.23;100259.56;5025940;28;20076;-76
2021/08/19 04:04:04;;;;;;;10.43;8.13;;;;;;;16.67;80.65;100259.88;5028568;28;20080;-75
2021/08/19 04:06:31;;;;;;;8.77;7.85;;;;;;;16.55;80.55;100268.94;5019492;28;20164;-79
2021/08/19 04:08:59;;;;;;;9.60;7.22;;;;;;;16.54;80.49;100264.59;5031503;28;20041;-75
2021/08/19 04:11:26;;;;;;;8.50;7.68;;;;;;;16.54;79.87;100262.78;5027491;28;20055;-76
2021/08/19 04:13:53;;;;;;;10.90;7.10;;;;;;;16.57;80.19;100264.31;5025647;28;20125;-77
2021/08/19 04:16:20;;;;;;;7.70;6.78;;;;;;;16.71;79.80;100262.09;5021131;28;20141;-77
2021/08/19 04:18:47;;;;;;;9.73;7.38;;;;;;;16.70;79.49;100251.59;5028942;28;20041;-77
2021/08/19 04:21:16;;;;;;;11.13;6.95;;;;;;;16.77;79.52;100267.88;5022130;28;20064;-76
2021/08/19 04:23:44;;;;;;;9.27;7.22;;;;;;;16.73;79.33;100266.47;5028619;28;20060;-76
2021/08/19 04:26:12;;;;;;;9.48;6.30;;;;;;;16.54;79.67;100262.78;5027202;28;20060;-75
2021/08/19 04:28:39;;;;;;;9.10;6.43;;;;;;;16.65;79.96;100261.81;5024474;28;20053;-76
2021/08/19 04:31:07;;;;;;;6.53;5.43;;;;;;;16.77;79.38;100259.91;5025978;28;20193;-78
2021/08/19 04:33:34;;;;;;;6.78;5.82;;;;;;;16.79;78.23;100265.91;5022698;28;20053;-77
2021/08/19 04:36:02;;;;;;;11.68;5.55;;;;;;;16.70;78.14;100268.38;5026915;28;20052;-76
2021/08/19 04:38:34;;;;;;;9.18;5.18;;;;;;;16.50;79.24;100276.47;5040635;28;20123;-75
2021/08/19 04:41:02;;;;;;;7.25;4.38;;;;;;;16.60;78.56;100280.00;5036351;28;20132;-75
2021/08/19 04:43:29;;;;;;;6.97;4.32;;;;;;;16.67;78.33;100274.00;5021569;28;20053;-78
2021/08/19 04:45:56;;;;;;;5.43;4.05;;;;;;;16.65;78.45;100281.25;5032095;28;20128;-77
2021/08/19 04:48:24;;;;;;;5.18;3.95;;;;;;;16.67;77.99;100283.78;5024585;28;20050;-77
2021/08/19 04:50:51;;;;;;;7.85;4.22;;;;;;;16.68;77.41;100274.84;5007030;28;20057;-80
2021/08/19 04:53:19;;;;;;;9.18;4.18;;;;;;;16.75;77.37;100280.44;5024328;28;20037;-79
2021/08/19 04:55:47;;;;;;;5.50;3.70;;;;;;;16.74;77.43;100279.63;5025941;28;20056;-78
2021/08/19 04:58:14;;;;;;;5.10;4.20;;;;;;;16.67;77.92;100295.25;5019296;28;20404;-78
2021/08/19 05:00:42;;;;;;;6.03;3.67;;;;;;;17.00;77.34;100284.41;5025729;28;20141;-76
2021/08/19 05:03:09;;;;;;;9.70;4.60;;;;;;;17.03;76.29;100294.75;5019613;28;20440;-78
2021/08/19 05:05:38;;;;;;;5.32;3.90;;;;;;;17.02;76.70;100295.72;5006237;28;20649;-79
2021/08/19 05:08:05;;;;;;;5.97;3.70;;;;;;;16.99;77.15;100296.84;5017758;28;20139;-78
2021/08/19 05:10:34;;;;;;;10.13;4.97;;;;;;;16.89;77.55;100298.69;5017922;28;20042;-77
2021/08/19 05:13:04;;;;;;;6.85;4.85;;;;;;;16.85;78.16;100300.78;5003968;28;20083;-77
2021/08/19 05:15:31;;;;;;;7.20;4.60;;;;;;;16.52;79.79;100301.09;5024404;28;20076;-80
2021/08/19 05:17:59;;;;;;;9.45;4.90;;;;;;;16.61;79.98;100308.25;5024984;28;20462;-80
2021/08/19 05:20:26;;;;;;;10.57;6.03;;;;;;;16.87;79.41;100313.91;5019922;28;20144;-77
2021/08/19 05:22:53;;;;;;;7.22;4.65;;;;;;;17.17;77.90;100308.47;5025823;28;20128;-76
2021/08/19 05:25:21;;;;;;;8.85;5.38;;;;;;;17.37;76.81;100308.44;5028349;28;20049;-79
2021/08/19 05:27:48;;;;;;;7.55;4.95;;;;;;;17.61;76.23;100308.84;5016025;28;20077;-76
2021/08/19 05:30:15;;;;;;;7.25;5.57;;;;;;;17.96;74.72;100316.19;5022636;28;20059;-76
2021/08/19 05:32:43;;;;;;;5.88;5.28;;;;;;;17.93;74.66;100319.16;5002228;28;20056;-76
2021/08/19 05:35:10;;;;;;;8.43;5.90;;;;;;;17.76;75.25;100314.59;5020657;28;20048;-76
2021/08/19 05:37:38;;;;;;;8.63;6.50;;;;;;;17.52;76.48;100316.84;5000637;28;20065;-75
2021/08/19 05:40:05;;;;;;;12.93;7.15;;;;;;;17.53;76.47;100318.53;5029105;28;20037;-76
2021/08/19 05:42:32;;;;;;;9.02;6.60;;;;;;;17.47;77.03;100314.59;5024004;28;20091;-76
2021/08/19 05:44:59;;;;;;;12.82;6.60;;;;;;;17.30;78.31;100310.00;5014886;28;20071;-77
2021/08/19 05:47:27;;;;;;;11.73;6.18;;;;;;;17.70;76.81;100307.16;5030755;28;20143;-77
2021/08/19 05:49:54;;;;;;;11.07;6.28;;;;;;;17.73;76.28;100312.16;5015388;28;20061;-77
2021/08/19 05:52:21;;;;;;;10.15;6.10;;;;;;;17.27;77.80;100312.94;5020222;28;20573;-77
2021/08/19 05:54:48;;;;;;;7.75;5.65;;;;;;;17.63;76.41;100311.34;5017028;28;20085;-76
2021/08/19 05:57:16;;;;;;;11.50;6.50;;;;;;;17.89;75.39;100314.28;5019476;28;20053;-76
2021/08/19 05:59:44;;;;;;;12.60;5.70;;;;;;;17.54;76.66;100314.88;5031281;28;20083;-75
2021/08/19 06:02:11;;;;;;;10.10;5.45;;;;;;;17.68;76.16;100319.75;5028531;28;20052;-76
2021/08/19 06:04:38;;;;;;;11.15;5.75;;;;;;;17.62;76.12;100326.50;5030014;28;20599;-76
2021/08/19 06:07:09;;;;;;;10.50;5.60;;;;;;;17.41;76.99;100331.97;5016019;28;20072;-78
2021/08/19 06:09:37;;;;;;;9.95;5.63;;;;;;;17.40;77.32;100340.09;5025134;28;20064;-75
2021/08/19 06:12:04;;;;;;;15.90;5.90;;;;;;;17.42;77.19;100338.97;5001577;28;20096;-76
2021/08/19 06:14:32;;;;;;;7.93;5.68;;;;;;;17.43;76.58;100339.84;5016571;28;20060;-76
2021/08/19 06:16:59;;;;;;;7.85;5.63;;;;;;;17.54;76.17;100330.84;5026636;28;20064;-78
2021/08/19 06:19:26;;;;;;;11.40;5.70;;;;;;;17.45;77.11;100337.84;5021961;28;20499;-78
2021/08/19 06:21:54;;;;;;;12.43;5.55;;;;;;;17.61;76.66;100339.97;5026490;28;20064;-77
2021/08/19 06:24:21;;;;;;;11.98;5.55;;;;;;;17.74;76.05;100344.97;5029787;28;20062;-77
2021/08/19 06:26:48;;;;;;;8.05;6.05;;;;;;;17.51;76.61;100345.25;5018120;28;20049;-76
2021/08/19 06:29:15;;;;;;;7.75;5.38;;;;;;;17.60;76.98;100346.25;5024834;28;20068;-79
2021/08/19 06:31:42;;;;;;;9.52;5.20;;;;;;;17.73;75.81;100346.78;5037299;28;20056;-76
2021/08/19 06:34:10;;;;;;;10.52;6.03;;;;;;;17.73;75.68;100346.78;5027127;28;20124;-78
2021/08/19 06:36:37;;;;;;;12.27;6.28;;;;;;;17.86;74.95;100347.34;5024957;28;20189;-75
2021/08/19 06:39:04;;;;;;;11.27;6.55;;;;;;;18.01;74.96;100347.72;5001169;28;20408;-78
2021/08/19 06:41:32;;;;;;;9.55;5.45;;;;;;;18.16;74.72;100348.09;5013822;28;20205;-77
2021/08/19 06:43:59;;;;;;;14.10;6.10;;;;;;;18.50;73.06;100348.34;4987596;28;20543;-82
2021/08/19 06:46:26;;;;;;;11.07;5.20;;;;;;;18.43;73.06;100347.28;5006410;28;20076;-76
2021/08/19 06:48:54;;;;;;;7.45;5.07;;;;;;;18.69;71.69;100345.63;4998720;28;20144;-82
2021/08/19 06:51:21;;;;;;;11.38;5.30;;;;;;;18.81;71.28;100353.41;5025589;28;20077;-80
2021/08/19 06:53:49;;;;;;;8.60;5.22;;;;;;;18.63;72.18;100353.34;5024312;28;20099;-76
2021/08/19 06:56:16;;;;;;;12.90;5.55;;;;;;;18.92;71.24;100350.53;5036542;28;20071;-77
2021/08/19 06:58:44;;;;;;;13.52;5.90;;;;;;;19.08;69.98;100347.19;5024117;28;20077;-77
2021/08/19 07:01:11;;;;;;;11.10;5.30;;;;;;;18.92;70.99;100353.22;5018154;28;20053;-76
2021/08/19 07:03:39;;;;;;;14.20;6.88;;;;;;;18.75;71.18;100352.19;5021044;28;20121;-76
2021/08/19 07:06:11;;;;;;;14.57;5.93;;;;;;;18.74;71.18;100350.53;5016221;28;20279;-76
2021/08/19 07:08:38;;;;;;;10.52;5.97;;;;;;;18.38;72.62;100346.91;4996978;28;20184;-77
2021/08/19 07:11:05;;;;;;;9.80;6.80;;;;;;;17.71;74.93;100362.91;4992081;28;20172;-77
2021/08/19 07:13:33;;;;;;;15.50;6.13;;;;;;;17.93;74.53;100353.78;5033005;28;20069;-77
2021/08/19 07:16:01;;;;;;;14.68;6.80;;;;;;;18.04;74.62;100352.75;5031111;28;20057;-77
2021/08/19 07:18:28;;;;;;;10.85;6.85;;;;;;;17.94;75.13;100352.78;5025204;28;20092;-77
2021/08/19 07:20:55;;;;;;;10.15;6.80;;;;;;;17.90;75.25;100350.56;5005508;28;20068;-75
2021/08/19 07:23:23;;;;;;;7.93;6.28;;;;;;;17.97;74.99;100359.66;5026726;28;20118;-77
2021/08/19 07:25:51;;;;;;;9.00;6.05;;;;;;;18.06;74.60;100356.13;5026180;28;20053;-76
2021/08/19 07:28:18;;;;;;;9.10;5.88;;;;;;;18.10;74.56;100349.53;5026706;28;20508;-77
2021/08/19 07:30:46;;;;;;;11.13;6.80;;;;;;;18.06;74.56;100361.47;5009094;28;20152;-78
2021/08/19 07:33:13;;;;;;;18.98;6.82;;;;;;;18.05;74.75;100364.25;5038497;28;20041;-77
2021/08/19 07:35:40;;;;;;;11.85;6.70;;;;;;;18.17;74.71;100360.44;5008222;28;20160;-77
2021/08/19 07:38:15;;;;;;;10.52;6.45;;;;;;;18.13;74.62;100364.38;5022708;28;20052;-77
2021/08/19 07:40:43;;;;;;;21.00;6.90;;;;;;;18.10;74.31;100367.31;5008295;28;20505;-79
2021/08/19 07:43:10;;;;;;;11.30;5.47;;;;;;;18.04;73.92;100365.25;5027341;28;20132;-80
2021/08/19 07:45:38;;;;;;;9.63;6.32;;;;;;;17.88;75.19;100366.69;5021243;28;20269;-78
2021/08/19 07:48:07;;;;;;;24.70;8.00;;;;;;;18.00;75.91;100359.34;5032602;28;20059;-77
2021/08/19 07:50:35;;;;;;;11.50;5.40;;;;;;;18.35;74.14;100364.00;4998327;28;20092;-77
2021/08/19 07:53:02;;;;;;;13.75;6.18;;;;;;;18.50;73.80;100366.19;5025949;28;20089;-80
2021/08/19 07:55:30;;;;;;;17.67;6.22;;;;;;;18.31;74.29;100365.28;5026524;28;20437;-78
2021/08/19 07:57:57;;;;;;;16.60;7.13;;;;;;;18.31;73.80;100365.28;5015652;28;20477;-78
2021/08/19 08:00:27;;;;;;;8.82;5.82;;;;;;;18.07;75.29;100376.44;5018633;28;20065;-78
2021/08/19 08:02:55;;;;;;;10.70;6.72;;;;;;;18.07;75.50;100373.78;5021154;28;20447;-78
2021/08/19 08:05:25;;;;;;;13.63;6.80;;;;;;;18.34;74.46;100374.81;5002735;28;20067;-77
2021/08/19 08:07:52;;;;;;;9.50;6.07;;;;;;;18.53;73.41;100384.56;5027762;28;20073;-78
2021/08/19 08:10:20;;;;;;;11.05;6.03;;;;;;;18.68;72.88;100388.41;5005299;28;20038;-78
2021/08/19 08:12:47;;;;;;;10.23;5.85;;;;;;;18.93;71.26;100377.06;5014531;28;20089;-77
2021/08/19 08:15:16;;;;;;;9.98;5.65;;;;;;;18.91;70.45;100391.53;5023909;28;20049;-77
2021/08/19 08:17:43;;;;;;;14.00;6.20;;;;;;;18.92;69.98;100388.72;5024109;28;20081;-79
2021/08/19 08:20:11;;;;;;;9.23;5.15;;;;;;;18.96;69.62;100386.59;5032427;28;20049;-76
2021/08/19 08:22:43;;;;;;;9.63;5.20;;;;;;;19.15;68.37;100388.28;5023145;28;20524;-77
2021/08/19 08:25:12;;;;;;;8.30;5.00;;;;;;;18.93;69.50;100389.56;5028521;28;20510;-76
2021/08/19 08:28:44;;;;;;;8.98;4.70;;;;;;;18.95;69.12;100390.25;5000376;28;20078;-77
2021/08/19 08:30:51;;;;;;;9.25;5.30;;;;;;;18.94;68.96;100393.91;5017325;28;20192;-76
2021/08/19 08:33:19;;;;;;;8.35;5.05;;;;;;;18.51;69.92;100395.38;5005919;28;20128;-79
2021/08/19 08:35:47;;;;;;;11.07;5.43;;;;;;;18.89;69.06;100398.84;4994553;28;20508;-77
2021/08/19 08:38:18;;;;;;;14.70;5.30;;;;;;;19.08;68.44;100403.22;5022419;28;20132;-79
2021/08/19 08:40:47;;;;;;;8.68;4.75;;;;;;;19.28;67.99;100410.13;5028087;28;20092;-78
2021/08/19 08:43:16;;;;;;;13.07;4.95;;;;;;;19.35;67.25;100408.50;5021538;28;20049;-78
2021/08/19 08:45:46;;;;;;;8.13;4.45;;;;;;;19.37;67.51;100408.38;5025333;28;20054;-78
2021/08/19 08:48:22;;;;;;;8.40;5.22;;;;;;;19.20;67.96;100418.88;5024531;28;20053;-78
2021/08/19 08:50:51;;;;;;;;;;;;;;;19.21;68.02;100417.88;5017362;28;20178;-77
2021/08/19 08:53:18;;;;;;;12.30;5.35;;;;;;;19.53;66.89;100424.50;5012764;28;20335;-78
2021/08/19 08:55:46;;;;;;;14.25;4.50;;;;;;;19.78;66.16;100422.09;4999997;28;20076;-78
2021/08/19 08:58:14;;;;;;;11.80;4.70;;;;;;;19.61;66.54;100429.13;4988612;28;20430;-78
2021/08/19 09:00:45;;;;;;;9.07;4.97;;;;;;;19.55;67.14;100427.88;5023654;28;20457;-77
2021/08/19 09:03:15;;;;;;;16.13;5.63;;;;;;;19.64;66.58;100435.00;5024303;28;20046;-77
2021/08/19 09:05:48;;;;;;;12.43;4.72;;;;;;;19.49;66.90;100433.81;5001415;28;20515;-79
2021/08/19 09:08:20;;;;;;;14.85;5.47;;;;;;;19.90;65.50;100434.19;5009830;28;20132;-77
2021/08/19 09:10:49;;;;;;;10.05;5.65;;;;;;;20.19;63.89;100431.25;5034148;28;20187;-78
2021/08/19 09:13:19;;;;;;;9.00;4.72;;;;;;;20.07;63.38;100437.84;5004648;28;20434;-78
2021/08/19 09:15:47;;;;;;;11.48;4.90;;;;;;;20.55;61.44;100433.81;5022844;28;20061;-77
2021/08/19 09:18:36;;;;;;;8.75;4.22;;;;;;;20.20;62.95;100432.91;5023020;28;20051;-77
2021/08/19 09:21:24;;;;;;;13.05;4.68;;;;;;;20.43;61.96;100435.88;5025933;28;20080;-78
2021/08/19 09:24:17;;;;;;;10.82;4.75;;;;;;;20.67;61.56;100446.75;5022530;28;20055;-78
2021/08/19 09:26:47;;;;;;;7.93;4.38;;;;;;;21.12;60.27;100442.06;5027467;28;20076;-79
2021/08/19 09:29:26;;;;;;;8.40;4.07;;;;;;;21.08;60.50;100438.88;5024365;28;20054;-77
2021/08/19 09:32:14;;;;;;;6.05;3.72;;;;;;;21.01;59.32;100435.19;5013830;28;20061;-78
2021/08/19 09:34:44;;;;;;;9.57;4.05;;;;;;;21.06;58.38;100440.88;4990702;28;20058;-79
2021/08/19 09:37:13;;;;;;;8.10;3.97;;;;;;;21.13;58.12;100441.06;5013748;28;20061;-78
2021/08/19 09:39:46;;;;;;;10.23;4.28;;;;;;;20.56;59.70;100440.84;5022375;28;20216;-79
2021/08/19 09:42:14;;;;;;;8.75;4.63;;;;;;;20.27;60.71;100441.16;5019864;28;20080;-78
2021/08/19 09:44:46;;;;;;;6.90;4.00;;;;;;;20.24;61.39;100444.97;5015835;28;20096;-78
2021/08/19 09:47:31;;;;;;;6.68;3.42;;;;;;;20.08;62.43;100445.69;5004386;28;20054;-82
2021/08/19 09:50:29;;;;;;;8.43;4.43;;;;;;;20.56;60.63;100448.88;5020314;28;20052;-82
2021/08/19 09:53:16;;;;;;;17.20;5.00;;;;;;;20.26;62.55;100451.00;4992728;28;20065;-84
2021/08/19 09:55:44;;;;;;;11.98;5.22;;;;;;;20.04;63.19;100457.72;5029679;28;20084;-83
2021/08/19 09:58:27;;;;;;;13.63;5.22;;;;;;;19.93;64.20;100452.59;5026081;28;20634;-83
2021/08/19 10:00:57;;;;;;;10.45;4.35;;;;;;;20.28;63.01;100445.50;4986455;28;20132;-82
2021/08/19 10:03:26;;;;;;;5.28;3.88;;;;;;;20.45;62.51;100450.78;5024550;28;20460;-81
2021/08/19 10:05:55;;;;;;;13.35;4.82;;;;;;;20.80;61.37;100458.84;5009186;28;20119;-80
2021/08/19 10:08:24;;;;;;;6.97;3.90;;;;;;;20.72;61.84;100457.81;5021942;28;20060;-81
2021/08/19 10:10:55;;;;;;;7.53;4.00;;;;;;;20.90;61.28;100451.53;5014550;28;20151;-80
2021/08/19 10:13:26;;;;;;;6.03;4.47;;;;;;;20.86;61.61;100458.22;5029263;28;20119;-80
2021/08/19 10:15:54;;;;;;;8.88;4.38;;;;;;;21.16;60.86;100454.97;5011130;28;20069;-80
2021/08/19 10:18:32;;;;;;;8.57;5.20;;;;;;;21.08;61.05;100452.28;5012392;28;20065;-82
2021/08/19 10:21:14;;;;;;;10.20;4.47;;;;;;;21.24;60.32;100454.97;5028716;28;20376;-81
2021/08/19 10:24:02;;;;;;;7.75;4.32;;;;;;;21.20;61.03;100452.78;5004174;28;20068;-80
2021/08/19 10:26:31;;;;;;;8.07;5.15;;;;;;;20.94;61.46;100453.72;5009794;28;20053;-82
2021/08/19 10:28:59;;;;;;;10.57;5.07;;;;;;;20.40;62.66;100453.09;5003292;28;20120;-81
2021/08/19 10:31:36;;;;;;;12.02;4.80;;;;;;;19.94;64.32;100451.59;5021744;28;20053;-81
2021/08/19 10:34:03;;;;;;;9.23;4.93;;;;;;;19.83;64.78;100451.84;5019986;28;20061;-80
2021/08/19 10:36:31;;;;;;;11.82;5.20;;;;;;;19.64;65.62;100451.03;5006753;28;20144;-80
2021/08/19 10:39:20;;;;;;;7.95;4.40;;;;;;;19.95;64.39;100461.31;5029261;28;20033;-80
2021/08/19 10:41:53;;;;;;;12.75;5.22;;;;;;;20.33;63.47;100454.72;4998763;28;20443;-81
2021/08/19 10:44:45;;;;;;;6.57;4.70;;;;;;;20.84;61.90;100455.69;4994110;28;20152;-80
2021/08/19 10:47:35;;;;;;;7.18;4.65;;;;;;;21.77;59.34;100460.13;5021159;28;20131;-80
2021/08/19 10:50:25;;;;;;;8.55;4.60;;;;;;;22.45;57.00;100455.22;5026261;28;20061;-80
2021/08/19 10:52:53;;;;;;;8.18;4.53;;;;;;;22.50;55.88;100452.84;5021374;28;20113;-80
2021/08/19 10:55:21;;;;;;;10.45;5.13;;;;;;;22.21;56.58;100453.41;5035814;28;20037;-80
2021/08/19 10:57:56;;;;;;;9.30;5.10;;;;;;;22.52;56.08;100455.38;5016847;28;20056;-81
2021/08/19 11:00:41;;;;;;;12.20;4.82;;;;;;;21.91;56.98;100459.44;5024877;28;20061;-80
2021/08/19 11:03:36;;;;;;;10.55;5.32;;;;;;;21.11;59.75;100459.13;5000861;28;20042;-79
2021/08/19 11:06:08;;;;;;;13.85;5.25;;;;;;;21.60;58.26;100457.41;5042268;28;20217;-84
2021/08/19 11:08:41;;;;;;;9.88;4.97;;;;;;;22.34;56.62;100455.59;5017890;28;20053;-79
2021/08/19 11:11:10;;;;;;;9.85;5.32;;;;;;;22.84;55.06;100448.22;5028047;28;20123;-80
2021/08/19 11:13:37;;;;;;;8.80;5.05;;;;;;;22.66;55.26;100456.50;5017745;28;20215;-78
2021/08/19 11:16:07;;;;;;;9.10;5.13;;;;;;;21.90;56.95;100455.09;5032502;28;20149;-81
2021/08/19 11:18:35;;;;;;;12.80;4.60;;;;;;;22.70;55.39;100455.16;5024718;28;20077;-81
2021/08/19 11:21:04;;;;;;;6.43;4.82;;;;;;;22.34;55.70;100450.22;5024396;28;20099;-83
2021/08/19 11:23:35;;;;;;;11.27;4.55;;;;;;;23.07;53.93;100464.41;5042842;28;20042;-82
2021/08/19 11:26:10;;;;;;;8.65;5.13;;;;;;;23.47;52.79;100460.66;5019072;28;20053;-80
2021/08/19 11:28:45;;;;;;;10.80;4.20;;;;;;;23.45;52.71;100460.00;5001954;28;20116;-80
2021/08/19 11:31:14;;;;;;;10.90;4.77;;;;;;;23.41;52.51;100459.50;5046056;28;20065;-80
2021/08/19 11:33:43;;;;;;;10.07;4.55;;;;;;;22.71;53.76;100459.50;5039278;28;20065;-80